sensor_id;sensor_type;location;lat;lon;timestamp;pressure;altitude;pressure_sealevel;temperature;humidity
42727;BME280;28372;56.832;60.658;2022-11-03T00:02:17;96411.34;;;0.17;100.00
42727;BME280;28372;56.832;60.658;2022-11-03T00:04:45;96436.81;;;0.31;100.00
42727;BME280;28372;56.832;60.658;2022-11-03T00:07:19;96410.22;;;0.31;100.00
42727;BME280;28372;56.832;60.658;2022-11-03T00:09:48;96403.25;;;0.14;100.00
42727;BME280;28372;56.832;60.658;2022-11-03T00:12:18;96412.91;;;0.19;100.00
42727;BME280;28372;56.832;60.658;2022-11-03T00:15:02;96422.63;;;0.27;100.00
42727;BME280;28372;56.832;60.658;2022-11-03T00:17:40;96430.81;;;0.34;100.00
42727;BME280;28372;56.832;60.658;2022-11-03T00:20:11;96423.81;;;0.29;100.00
42727;BME280;28372;56.832;60.658;2022-11-03T00:22:42;96437.78;;;0.26;100.00
42727;BME280;28372;56.832;60.658;2022-11-03T00:25:17;96423.09;;;0.16;100.00
42727;BME280;28372;56.832;60.658;2022-11-03T00:27:53;96453.53;;;0.31;100.00
42727;BME280;28372;56.832;60.658;2022-11-03T00:30:22;96475.53;;;0.44;100.00
42727;BME280;28372;56.832;60.658;2022-11-03T00:32:54;96441.31;;;0.30;100.00
42727;BME280;28372;56.832;60.658;2022-11-03T00:35:22;96441.56;;;0.25;100.00
42727;BME280;28372;56.832;60.658;2022-11-03T00:37:52;96457.97;;;0.27;100.00
42727;BME280;28372;56.832;60.658;2022-11-03T00:40:26;96432.28;;;0.19;100.00
42727;BME280;28372;56.832;60.658;2022-11-03T00:42:54;96443.69;;;0.20;100.00
42727;BME280;28372;56.832;60.658;2022-11-03T00:45:30;96476.78;;;0.34;100.00
42727;BME280;28372;56.832;60.658;2022-11-03T00:47:59;96466.81;;;0.31;100.00
42727;BME280;28372;56.832;60.658;2022-11-03T00:50:48;96441.00;;;0.20;100.00
42727;BME280;28372;56.832;60.658;2022-11-03T00:53:24;96444.22;;;0.25;100.00
42727;BME280;28372;56.832;60.658;2022-11-03T00:55:54;96472.56;;;0.33;100.00
42727;BME280;28372;56.832;60.658;2022-11-03T00:58:25;96465.38;;;0.34;100.00
42727;BME280;28372;56.832;60.658;2022-11-03T01:01:05;96458.34;;;0.42;100.00
42727;BME280;28372;56.832;60.658;2022-11-03T01:03:43;96448.28;;;0.35;100.00
42727;BME280;28372;56.832;60.658;2022-11-03T01:06:32;96468.22;;;0.41;100.00
42727;BME280;28372;56.832;60.658;2022-11-03T01:09:34;96449.47;;;0.50;100.00
42727;BME280;28372;56.832;60.658;2022-11-03T01:12:08;96480.25;;;0.63;100.00
42727;BME280;28372;56.832;60.658;2022-11-03T01:14:41;96480.72;;;0.53;100.00
42727;BME280;28372;56.832;60.658;2022-11-03T01:17:14;96468.38;;;0.32;100.00
42727;BME280;28372;56.832;60.658;2022-11-03T01:19:46;96467.50;;;0.28;100.00
42727;BME280;28372;56.832;60.658;2022-11-03T01:22:18;96471.38;;;0.31;100.00
42727;BME280;28372;56.832;60.658;2022-11-03T01:24:48;96515.06;;;0.58;100.00
42727;BME280;28372;56.832;60.658;2022-11-03T01:27:20;96471.81;;;0.33;100.00
42727;BME280;28372;56.832;60.658;2022-11-03T01:29:56;96492.84;;;0.38;100.00
42727;BME280;28372;56.832;60.658;2022-11-03T01:32:28;96504.66;;;0.53;100.00
42727;BME280;28372;56.832;60.658;2022-11-03T01:34:59;96472.69;;;0.25;100.00
42727;BME280;28372;56.832;60.658;2022-11-03T01:37:29;96470.72;;;0.22;100.00
42727;BME280;28372;56.832;60.658;2022-11-03T01:40:02;96494.84;;;0.41;100.00
42727;BME280;28372;56.832;60.658;2022-11-03T01:42:32;96459.19;;;0.17;100.00
42727;BME280;28372;56.832;60.658;2022-11-03T01:45:01;96453.69;;;0.10;100.00
42727;BME280;28372;56.832;60.658;2022-11-03T01:47:52;96458.66;;;0.12;100.00
42727;BME280;28372;56.832;60.658;2022-11-03T01:50:21;96491.84;;;0.30;100.00
42727;BME280;28372;56.832;60.658;2022-11-03T01:52:55;96479.47;;;0.22;100.00
42727;BME280;28372;56.832;60.658;2022-11-03T01:55:28;96512.22;;;0.39;100.00
42727;BME280;28372;56.832;60.658;2022-11-03T02:00:34;96497.09;;;0.14;100.00
42727;BME280;28372;56.832;60.658;2022-11-03T02:03:04;96516.13;;;0.29;100.00
42727;BME280;28372;56.832;60.658;2022-11-03T02:05:35;96460.91;;;-0.03;100.00
42727;BME280;28372;56.832;60.658;2022-11-03T02:10:41;96476.84;;;-0.03;100.00
42727;BME280;28372;56.832;60.658;2022-11-03T02:13:25;96517.91;;;0.25;100.00
42727;BME280;28372;56.832;60.658;2022-11-03T02:16:00;96498.19;;;0.13;100.00
42727;BME280;28372;56.832;60.658;2022-11-03T02:18:32;96481.16;;;-0.10;100.00
42727;BME280;28372;56.832;60.658;2022-11-03T02:21:05;96522.44;;;0.37;100.00
42727;BME280;28372;56.832;60.658;2022-11-03T02:26:38;96492.69;;;-0.06;100.00
42727;BME280;28372;56.832;60.658;2022-11-03T02:29:23;96502.63;;;0.09;100.00
42727;BME280;28372;56.832;60.658;2022-11-03T02:32:04;96513.69;;;0.24;100.00
42727;BME280;28372;56.832;60.658;2022-11-03T02:34:40;96527.88;;;0.28;100.00
42727;BME280;28372;56.832;60.658;2022-11-03T02:37:15;96522.13;;;0.13;100.00
42727;BME280;28372;56.832;60.658;2022-11-03T02:39:50;96519.81;;;-0.01;100.00
42727;BME280;28372;56.832;60.658;2022-11-03T02:42:22;96499.69;;;-0.14;100.00
42727;BME280;28372;56.832;60.658;2022-11-03T02:44:52;96530.22;;;0.05;100.00
42727;BME280;28372;56.832;60.658;2022-11-03T02:47:22;96531.66;;;0.14;100.00
42727;BME280;28372;56.832;60.658;2022-11-03T02:49:53;96542.63;;;0.13;100.00
42727;BME280;28372;56.832;60.658;2022-11-03T02:52:38;96540.41;;;0.15;100.00
42727;BME280;28372;56.832;60.658;2022-11-03T02:55:15;96522.59;;;-0.09;100.00
42727;BME280;28372;56.832;60.658;2022-11-03T02:57:54;96538.41;;;0.12;100.00
42727;BME280;28372;56.832;60.658;2022-11-03T03:00:23;96516.81;;;-0.11;100.00
42727;BME280;28372;56.832;60.658;2022-11-03T03:03:10;96532.22;;;0.08;100.00
42727;BME280;28372;56.832;60.658;2022-11-03T03:05:44;96526.47;;;0.06;100.00
42727;BME280;28372;56.832;60.658;2022-11-03T03:08:12;96530.91;;;0.02;100.00
42727;BME280;28372;56.832;60.658;2022-11-03T03:10:45;96541.41;;;0.10;100.00
42727;BME280;28372;56.832;60.658;2022-11-03T03:13:17;96520.16;;;-0.02;100.00
42727;BME280;28372;56.832;60.658;2022-11-03T03:15:58;96534.66;;;0.13;100.00
42727;BME280;28372;56.832;60.658;2022-11-03T03:18:48;96549.38;;;0.23;100.00
42727;BME280;28372;56.832;60.658;2022-11-03T03:21:24;96559.81;;;0.15;100.00
42727;BME280;28372;56.832;60.658;2022-11-03T03:24:02;96561.88;;;0.22;100.00
42727;BME280;28372;56.832;60.658;2022-11-03T03:26:43;96549.47;;;0.14;100.00
42727;BME280;28372;56.832;60.658;2022-11-03T03:29:19;96572.88;;;0.21;100.00
42727;BME280;28372;56.832;60.658;2022-11-03T03:31:58;96550.81;;;0.08;100.00
42727;BME280;28372;56.832;60.658;2022-11-03T03:34:27;96571.97;;;0.16;100.00
42727;BME280;28372;56.832;60.658;2022-11-03T03:37:03;96571.88;;;0.13;100.00
42727;BME280;28372;56.832;60.658;2022-11-03T03:39:35;96586.06;;;0.17;100.00
42727;BME280;28372;56.832;60.658;2022-11-03T03:42:05;96590.50;;;0.13;100.00
42727;BME280;28372;56.832;60.658;2022-11-03T03:44:36;96591.38;;;0.17;100.00
42727;BME280;28372;56.832;60.658;2022-11-03T03:47:22;96598.78;;;0.24;100.00
42727;BME280;28372;56.832;60.658;2022-11-03T03:49:52;96594.59;;;0.10;100.00
42727;BME280;28372;56.832;60.658;2022-11-03T03:52:20;96598.13;;;0.02;100.00
42727;BME280;28372;56.832;60.658;2022-11-03T03:54:48;96589.13;;;-0.06;100.00
42727;BME280;28372;56.832;60.658;2022-11-03T03:57:21;96579.38;;;-0.02;100.00
42727;BME280;28372;56.832;60.658;2022-11-03T03:59:49;96593.50;;;0.11;100.00
42727;BME280;28372;56.832;60.658;2022-11-03T04:02:18;96567.31;;;-0.11;100.00
42727;BME280;28372;56.832;60.658;2022-11-03T04:04:46;96593.69;;;0.06;100.00
42727;BME280;28372;56.832;60.658;2022-11-03T04:07:13;96596.56;;;0.13;100.00
42727;BME280;28372;56.832;60.658;2022-11-03T04:09:59;96595.47;;;0.14;100.00
42727;BME280;28372;56.832;60.658;2022-11-03T04:12:26;96597.91;;;0.20;100.00
42727;BME280;28372;56.832;60.658;2022-11-03T04:15:12;96597.25;;;0.23;100.00
42727;BME280;28372;56.832;60.658;2022-11-03T04:17:58;96610.75;;;0.30;100.00
42727;BME280;28372;56.832;60.658;2022-11-03T04:20:44;96599.78;;;0.31;100.00
42727;BME280;28372;56.832;60.658;2022-11-03T04:23:31;96611.41;;;0.39;100.00
42727;BME280;28372;56.832;60.658;2022-11-03T04:25:58;96612.00;;;0.32;100.00
42727;BME280;28372;56.832;60.658;2022-11-03T04:28:28;96615.28;;;0.42;100.00
42727;BME280;28372;56.832;60.658;2022-11-03T04:30:58;96627.38;;;0.39;100.00
42727;BME280;28372;56.832;60.658;2022-11-03T04:33:28;96625.72;;;0.47;100.00
42727;BME280;28372;56.832;60.658;2022-11-03T04:35:57;96599.88;;;0.35;100.00
42727;BME280;28372;56.832;60.658;2022-11-03T04:38:26;96593.91;;;0.26;100.00
42727;BME280;28372;56.832;60.658;2022-11-03T04:40:57;96634.38;;;0.44;100.00
42727;BME280;28372;56.832;60.658;2022-11-03T04:43:35;96623.19;;;0.38;100.00
42727;BME280;28372;56.832;60.658;2022-11-03T04:46:04;96633.25;;;0.45;100.00
42727;BME280;28372;56.832;60.658;2022-11-03T04:48:35;96630.69;;;0.48;100.00
42727;BME280;28372;56.832;60.658;2022-11-03T04:51:21;96641.69;;;0.59;100.00
42727;BME280;28372;56.832;60.658;2022-11-03T04:53:54;96640.47;;;0.57;100.00
42727;BME280;28372;56.832;60.658;2022-11-03T04:56:23;96629.25;;;0.51;100.00
42727;BME280;28372;56.832;60.658;2022-11-03T04:58:52;96624.94;;;0.46;100.00
42727;BME280;28372;56.832;60.658;2022-11-03T05:01:21;96633.03;;;0.62;100.00
42727;BME280;28372;56.832;60.658;2022-11-03T05:03:55;96632.13;;;0.58;100.00
42727;BME280;28372;56.832;60.658;2022-11-03T05:06:26;96650.09;;;0.61;100.00
42727;BME280;28372;56.832;60.658;2022-11-03T05:08:58;96636.13;;;0.64;100.00
42727;BME280;28372;56.832;60.658;2022-11-03T05:11:31;96635.00;;;0.65;100.00
42727;BME280;28372;56.832;60.658;2022-11-03T05:14:02;96640.00;;;0.67;100.00
42727;BME280;28372;56.832;60.658;2022-11-03T05:16:33;96633.69;;;0.47;100.00
42727;BME280;28372;56.832;60.658;2022-11-03T05:19:01;96649.66;;;0.59;100.00
42727;BME280;28372;56.832;60.658;2022-11-03T05:21:29;96636.91;;;0.53;100.00
42727;BME280;28372;56.832;60.658;2022-11-03T05:24:01;96650.75;;;0.71;100.00
42727;BME280;28372;56.832;60.658;2022-11-03T05:26:32;96654.53;;;0.70;100.00
42727;BME280;28372;56.832;60.658;2022-11-03T05:31:33;96658.81;;;0.74;100.00
42727;BME280;28372;56.832;60.658;2022-11-03T05:34:36;96670.47;;;0.82;100.00
42727;BME280;28372;56.832;60.658;2022-11-03T05:39:58;96666.25;;;0.93;100.00
42727;BME280;28372;56.832;60.658;2022-11-03T05:42:31;96649.19;;;0.82;100.00
42727;BME280;28372;56.832;60.658;2022-11-03T05:45:01;96652.72;;;0.86;100.00
42727;BME280;28372;56.832;60.658;2022-11-03T05:47:36;96664.34;;;0.94;100.00
42727;BME280;28372;56.832;60.658;2022-11-03T05:50:17;96648.84;;;0.83;100.00
42727;BME280;28372;56.832;60.658;2022-11-03T05:52:48;96655.06;;;0.75;100.00
42727;BME280;28372;56.832;60.658;2022-11-03T05:55:29;96665.25;;;0.85;100.00
42727;BME280;28372;56.832;60.658;2022-11-03T05:58:01;96653.16;;;0.76;100.00
42727;BME280;28372;56.832;60.658;2022-11-03T06:00:36;96667.28;;;0.76;100.00
42727;BME280;28372;56.832;60.658;2022-11-03T06:03:04;96652.41;;;0.75;100.00
42727;BME280;28372;56.832;60.658;2022-11-03T06:05:32;96647.97;;;0.67;100.00
42727;BME280;28372;56.832;60.658;2022-11-03T06:08:05;96661.28;;;0.67;100.00
42727;BME280;28372;56.832;60.658;2022-11-03T06:10:41;96670.69;;;0.77;100.00
42727;BME280;28372;56.832;60.658;2022-11-03T06:13:15;96672.25;;;0.78;100.00
42727;BME280;28372;56.832;60.658;2022-11-03T06:15:46;96664.72;;;0.55;100.00
42727;BME280;28372;56.832;60.658;2022-11-03T06:18:22;96666.19;;;0.65;100.00
42727;BME280;28372;56.832;60.658;2022-11-03T06:20:58;96642.34;;;0.44;100.00
42727;BME280;28372;56.832;60.658;2022-11-03T06:23:30;96674.50;;;0.51;100.00
42727;BME280;28372;56.832;60.658;2022-11-03T06:26:02;96670.94;;;0.59;100.00
42727;BME280;28372;56.832;60.658;2022-11-03T06:28:37;96677.25;;;0.67;100.00
42727;BME280;28372;56.832;60.658;2022-11-03T06:31:16;96685.44;;;0.74;100.00
42727;BME280;28372;56.832;60.658;2022-11-03T06:33:50;96689.66;;;0.75;100.00
42727;BME280;28372;56.832;60.658;2022-11-03T06:36:21;96678.94;;;0.72;100.00
42727;BME280;28372;56.832;60.658;2022-11-03T06:38:56;96670.16;;;0.71;100.00
42727;BME280;28372;56.832;60.658;2022-11-03T06:41:25;96682.44;;;0.76;100.00
42727;BME280;28372;56.832;60.658;2022-11-03T06:43:54;96685.22;;;0.79;100.00
42727;BME280;28372;56.832;60.658;2022-11-03T06:46:24;96693.22;;;0.79;100.00
42727;BME280;28372;56.832;60.658;2022-11-03T06:48:54;96677.03;;;0.72;100.00
42727;BME280;28372;56.832;60.658;2022-11-03T06:51:26;96684.56;;;0.82;100.00
42727;BME280;28372;56.832;60.658;2022-11-03T06:53:57;96693.00;;;0.84;100.00
42727;BME280;28372;56.832;60.658;2022-11-03T06:56:27;96685.00;;;0.84;100.00
42727;BME280;28372;56.832;60.658;2022-11-03T06:58:57;96690.66;;;0.83;100.00
42727;BME280;28372;56.832;60.658;2022-11-03T07:01:32;96695.53;;;0.93;100.00
42727;BME280;28372;56.832;60.658;2022-11-03T07:04:10;96693.09;;;0.88;100.00
42727;BME280;28372;56.832;60.658;2022-11-03T07:06:44;96687.66;;;0.84;100.00
42727;BME280;28372;56.832;60.658;2022-11-03T07:09:21;96680.78;;;0.83;100.00
42727;BME280;28372;56.832;60.658;2022-11-03T07:11:54;96692.31;;;0.88;100.00
42727;BME280;28372;56.832;60.658;2022-11-03T07:14:30;96673.59;;;0.72;100.00
42727;BME280;28372;56.832;60.658;2022-11-03T07:17:03;96675.13;;;0.60;100.00
42727;BME280;28372;56.832;60.658;2022-11-03T07:19:41;96664.06;;;0.58;100.00
42727;BME280;28372;56.832;60.658;2022-11-03T07:24:42;96679.13;;;0.54;100.00
42727;BME280;28372;56.832;60.658;2022-11-03T07:27:23;96661.28;;;0.55;100.00
42727;BME280;28372;56.832;60.658;2022-11-03T07:29:56;96689.78;;;0.79;100.00
42727;BME280;28372;56.832;60.658;2022-11-03T07:32:30;96680.78;;;0.71;100.00
42727;BME280;28372;56.832;60.658;2022-11-03T07:35:29;96684.44;;;0.91;100.00
42727;BME280;28372;56.832;60.658;2022-11-03T07:38:23;96699.63;;;0.78;100.00
42727;BME280;28372;56.832;60.658;2022-11-03T07:40:55;96654.19;;;0.59;100.00
42727;BME280;28372;56.832;60.658;2022-11-03T07:43:30;96669.06;;;0.60;100.00
42727;BME280;28372;56.832;60.658;2022-11-03T07:46:02;96690.00;;;0.74;100.00
42727;BME280;28372;56.832;60.658;2022-11-03T07:48:46;96713.72;;;0.91;100.00
42727;BME280;28372;56.832;60.658;2022-11-03T07:51:30;96674.25;;;0.81;100.00
42727;BME280;28372;56.832;60.658;2022-11-03T07:56:44;96694.78;;;0.93;100.00
42727;BME280;28372;56.832;60.658;2022-11-03T07:59:30;96684.53;;;0.95;100.00
42727;BME280;28372;56.832;60.658;2022-11-03T08:02:00;96688.34;;;0.81;100.00
42727;BME280;28372;56.832;60.658;2022-11-03T08:04:31;96717.38;;;0.99;100.00
42727;BME280;28372;56.832;60.658;2022-11-03T08:07:00;96704.50;;;1.01;100.00
42727;BME280;28372;56.832;60.658;2022-11-03T08:09:28;96699.63;;;0.91;100.00
42727;BME280;28372;56.832;60.658;2022-11-03T08:11:56;96711.94;;;0.95;100.00
42727;BME280;28372;56.832;60.658;2022-11-03T08:14:24;96682.34;;;0.72;100.00
42727;BME280;28372;56.832;60.658;2022-11-03T08:17:02;96697.66;;;0.88;100.00
42727;BME280;28372;56.832;60.658;2022-11-03T08:19:35;96723.59;;;0.91;100.00
42727;BME280;28372;56.832;60.658;2022-11-03T08:22:03;96733.47;;;0.90;100.00
42727;BME280;28372;56.832;60.658;2022-11-03T08:24:30;96720.72;;;0.96;100.00
42727;BME280;28372;56.832;60.658;2022-11-03T08:26:58;96701.63;;;0.94;100.00
42727;BME280;28372;56.832;60.658;2022-11-03T08:29:26;96707.63;;;0.91;100.00
42727;BME280;28372;56.832;60.658;2022-11-03T08:31:54;96721.81;;;1.07;100.00
42727;BME280;28372;56.832;60.658;2022-11-03T08:34:21;96711.72;;;1.00;100.00
42727;BME280;28372;56.832;60.658;2022-11-03T08:36:49;96718.38;;;1.07;100.00
42727;BME280;28372;56.832;60.658;2022-11-03T08:39:16;96726.03;;;1.08;100.00
42727;BME280;28372;56.832;60.658;2022-11-03T08:41:44;96721.16;;;0.98;100.00
42727;BME280;28372;56.832;60.658;2022-11-03T08:44:11;96708.84;;;0.93;100.00
42727;BME280;28372;56.832;60.658;2022-11-03T08:46:39;96715.16;;;1.01;100.00
42727;BME280;28372;56.832;60.658;2022-11-03T08:49:07;96725.91;;;0.92;100.00
42727;BME280;28372;56.832;60.658;2022-11-03T08:51:34;96733.22;;;1.08;100.00
42727;BME280;28372;56.832;60.658;2022-11-03T08:54:10;96733.34;;;1.11;100.00
42727;BME280;28372;56.832;60.658;2022-11-03T08:56:37;96750.97;;;1.16;100.00
42727;BME280;28372;56.832;60.658;2022-11-03T08:59:05;96721.47;;;1.09;100.00
42727;BME280;28372;56.832;60.658;2022-11-03T09:01:33;96739.66;;;1.19;100.00
42727;BME280;28372;56.832;60.658;2022-11-03T09:04:01;96734.22;;;1.15;100.00
42727;BME280;28372;56.832;60.658;2022-11-03T09:06:29;96743.09;;;1.19;100.00
42727;BME280;28372;56.832;60.658;2022-11-03T09:08:57;96735.34;;;1.14;100.00
42727;BME280;28372;56.832;60.658;2022-11-03T09:11:44;96738.00;;;1.14;100.00
42727;BME280;28372;56.832;60.658;2022-11-03T09:14:12;96723.91;;;1.14;100.00
42727;BME280;28372;56.832;60.658;2022-11-03T09:16:40;96739.31;;;1.20;100.00
42727;BME280;28372;56.832;60.658;2022-11-03T09:19:08;96738.31;;;1.25;100.00
42727;BME280;28372;56.832;60.658;2022-11-03T09:21:35;96747.75;;;1.23;100.00
42727;BME280;28372;56.832;60.658;2022-11-03T09:24:04;96738.41;;;1.16;100.00
42727;BME280;28372;56.832;60.658;2022-11-03T09:26:32;96740.31;;;1.28;100.00
42727;BME280;28372;56.832;60.658;2022-11-03T09:28:59;96732.19;;;1.25;100.00
42727;BME280;28372;56.832;60.658;2022-11-03T09:31:28;96730.56;;;1.20;100.00
42727;BME280;28372;56.832;60.658;2022-11-03T09:33:55;96733.75;;;1.26;100.00
42727;BME280;28372;56.832;60.658;2022-11-03T09:36:23;96739.28;;;1.33;100.00
42727;BME280;28372;56.832;60.658;2022-11-03T09:38:51;96720.22;;;1.18;100.00
42727;BME280;28372;56.832;60.658;2022-11-03T09:41:22;96746.28;;;1.38;100.00
42727;BME280;28372;56.832;60.658;2022-11-03T09:44:05;96752.81;;;1.40;100.00
42727;BME280;28372;56.832;60.658;2022-11-03T09:46:54;96733.28;;;1.36;100.00
42727;BME280;28372;56.832;60.658;2022-11-03T09:49:30;96738.03;;;1.43;100.00
42727;BME280;28372;56.832;60.658;2022-11-03T09:52:01;96723.88;;;1.26;100.00
42727;BME280;28372;56.832;60.658;2022-11-03T09:54:30;96736.41;;;1.38;100.00
42727;BME280;28372;56.832;60.658;2022-11-03T09:57:05;96746.34;;;1.53;100.00
42727;BME280;28372;56.832;60.658;2022-11-03T09:59:36;96740.41;;;1.32;100.00
42727;BME280;28372;56.832;60.658;2022-11-03T10:02:23;96727.16;;;1.48;100.00
42727;BME280;28372;56.832;60.658;2022-11-03T10:05:01;96749.03;;;1.53;100.00
42727;BME280;28372;56.832;60.658;2022-11-03T10:07:37;96733.78;;;1.54;100.00
42727;BME280;28372;56.832;60.658;2022-11-03T10:10:32;96750.47;;;1.79;100.00
42727;BME280;28372;56.832;60.658;2022-11-03T10:13:16;96748.16;;;1.78;100.00
42727;BME280;28372;56.832;60.658;2022-11-03T10:15:51;96730.13;;;1.59;100.00
42727;BME280;28372;56.832;60.658;2022-11-03T10:18:23;96750.47;;;1.79;100.00
42727;BME280;28372;56.832;60.658;2022-11-03T10:20:54;96726.53;;;1.67;100.00
42727;BME280;28372;56.832;60.658;2022-11-03T10:23:24;96711.91;;;1.61;100.00
42727;BME280;28372;56.832;60.658;2022-11-03T10:26:14;96743.38;;;1.83;100.00
42727;BME280;28372;56.832;60.658;2022-11-03T10:29:05;96719.72;;;1.82;100.00
42727;BME280;28372;56.832;60.658;2022-11-03T10:31:39;96726.94;;;1.81;100.00
42727;BME280;28372;56.832;60.658;2022-11-03T10:34:38;96761.22;;;1.95;100.00
42727;BME280;28372;56.832;60.658;2022-11-03T10:37:22;96725.63;;;1.75;100.00
42727;BME280;28372;56.832;60.658;2022-11-03T10:39:57;96721.19;;;1.67;100.00
42727;BME280;28372;56.832;60.658;2022-11-03T10:42:34;96719.31;;;1.67;100.00
42727;BME280;28372;56.832;60.658;2022-11-03T10:45:15;96751.13;;;1.88;100.00
42727;BME280;28372;56.832;60.658;2022-11-03T10:48:08;96734.69;;;1.86;100.00
42727;BME280;28372;56.832;60.658;2022-11-03T10:50:56;96758.91;;;1.94;100.00
42727;BME280;28372;56.832;60.658;2022-11-03T10:53:40;96740.75;;;1.71;100.00
42727;BME280;28372;56.832;60.658;2022-11-03T10:56:13;96765.56;;;1.87;100.00
42727;BME280;28372;56.832;60.658;2022-11-03T10:58:42;96733.69;;;1.63;100.00
42727;BME280;28372;56.832;60.658;2022-11-03T11:01:13;96762.91;;;1.87;100.00
42727;BME280;28372;56.832;60.658;2022-11-03T11:03:46;96735.84;;;1.73;100.00
42727;BME280;28372;56.832;60.658;2022-11-03T11:06:28;96728.72;;;1.77;100.00
42727;BME280;28372;56.832;60.658;2022-11-03T11:09:08;96756.88;;;1.91;100.00
42727;BME280;28372;56.832;60.658;2022-11-03T11:11:38;96748.34;;;1.85;100.00
42727;BME280;28372;56.832;60.658;2022-11-03T11:14:34;96767.50;;;2.03;100.00
42727;BME280;28372;56.832;60.658;2022-11-03T11:17:03;96769.22;;;1.95;100.00
42727;BME280;28372;56.832;60.658;2022-11-03T11:20:51;96778.28;;;2.07;100.00
42727;BME280;28372;56.832;60.658;2022-11-03T11:22:49;96754.66;;;1.93;100.00
42727;BME280;28372;56.832;60.658;2022-11-03T11:25:20;96761.09;;;1.92;100.00
42727;BME280;28372;56.832;60.658;2022-11-03T11:33:20;96778.88;;;2.16;100.00
42727;BME280;28372;56.832;60.658;2022-11-03T11:38:51;96778.53;;;2.17;100.00
42727;BME280;28372;56.832;60.658;2022-11-03T11:52:42;96786.28;;;2.07;100.00
42727;BME280;28372;56.832;60.658;2022-11-03T11:57:48;96788.94;;;2.07;100.00
42727;BME280;28372;56.832;60.658;2022-11-03T12:00:21;96785.94;;;2.08;100.00
42727;BME280;28372;56.832;60.658;2022-11-03T12:02:54;96788.94;;;2.07;100.00
42727;BME280;28372;56.832;60.658;2022-11-03T12:05:25;96796.75;;;1.99;100.00
42727;BME280;28372;56.832;60.658;2022-11-03T12:07:54;96791.44;;;1.99;100.00
42727;BME280;28372;56.832;60.658;2022-11-03T12:10:24;96793.22;;;1.95;100.00
42727;BME280;28372;56.832;60.658;2022-11-03T12:12:55;96792.19;;;2.00;100.00
42727;BME280;28372;56.832;60.658;2022-11-03T12:15:52;96797.56;;;2.16;100.00
42727;BME280;28372;56.832;60.658;2022-11-03T12:18:40;96786.47;;;2.14;100.00
42727;BME280;28372;56.832;60.658;2022-11-03T12:21:47;96800.84;;;2.09;100.00
42727;BME280;28372;56.832;60.658;2022-11-03T12:26:59;96802.19;;;2.03;100.00
42727;BME280;28372;56.832;60.658;2022-11-03T12:29:26;96797.75;;;1.95;100.00
42727;BME280;28372;56.832;60.658;2022-11-03T12:31:54;96798.09;;;1.93;100.00
42727;BME280;28372;56.832;60.658;2022-11-03T12:34:22;96802.22;;;1.91;100.00
42727;BME280;28372;56.832;60.658;2022-11-03T12:36:50;96798.44;;;1.92;100.00
42727;BME280;28372;56.832;60.658;2022-11-03T12:39:22;96788.59;;;1.80;100.00
42727;BME280;28372;56.832;60.658;2022-11-03T12:41:49;96805.38;;;1.80;100.00
42727;BME280;28372;56.832;60.658;2022-11-03T12:44:17;96807.91;;;1.77;100.00
42727;BME280;28372;56.832;60.658;2022-11-03T12:46:44;96792.19;;;1.71;100.00
42727;BME280;28372;56.832;60.658;2022-11-03T12:49:15;96799.38;;;1.71;100.00
42727;BME280;28372;56.832;60.658;2022-11-03T12:51:42;96805.84;;;1.70;100.00
42727;BME280;28372;56.832;60.658;2022-11-03T12:54:10;96808.38;;;1.79;100.00
42727;BME280;28372;56.832;60.658;2022-11-03T12:56:37;96806.59;;;1.83;100.00
42727;BME280;28372;56.832;60.658;2022-11-03T12:59:05;96815.88;;;1.89;100.00
42727;BME280;28372;56.832;60.658;2022-11-03T13:01:36;96819.13;;;1.82;100.00
42727;BME280;28372;56.832;60.658;2022-11-03T13:04:04;96820.34;;;1.85;100.00
42727;BME280;28372;56.832;60.658;2022-11-03T13:06:35;96812.13;;;1.78;100.00
42727;BME280;28372;56.832;60.658;2022-11-03T13:09:02;96821.78;;;1.82;100.00
42727;BME280;28372;56.832;60.658;2022-11-03T13:11:30;96824.03;;;1.80;100.00
42727;BME280;28372;56.832;60.658;2022-11-03T13:14:16;96819.81;;;1.79;100.00
42727;BME280;28372;56.832;60.658;2022-11-03T13:16:46;96831.13;;;1.88;100.00
42727;BME280;28372;56.832;60.658;2022-11-03T13:19:14;96821.56;;;1.87;100.00
42727;BME280;28372;56.832;60.658;2022-11-03T13:21:41;96825.88;;;1.92;100.00
42727;BME280;28372;56.832;60.658;2022-11-03T13:24:09;96811.22;;;1.86;100.00
42727;BME280;28372;56.832;60.658;2022-11-03T13:26:38;96807.81;;;1.85;100.00
42727;BME280;28372;56.832;60.658;2022-11-03T13:29:06;96813.56;;;1.87;100.00
42727;BME280;28372;56.832;60.658;2022-11-03T13:31:33;96814.88;;;1.94;100.00
42727;BME280;28372;56.832;60.658;2022-11-03T13:34:01;96830.63;;;1.99;100.00
42727;BME280;28372;56.832;60.658;2022-11-03T13:36:32;96813.00;;;1.94;100.00
42727;BME280;28372;56.832;60.658;2022-11-03T13:39:03;96802.03;;;1.83;100.00
42727;BME280;28372;56.832;60.658;2022-11-03T13:41:38;96831.97;;;2.05;100.00
42727;BME280;28372;56.832;60.658;2022-11-03T13:44:07;96833.94;;;2.08;100.00
42727;BME280;28372;56.832;60.658;2022-11-03T13:46:37;96832.53;;;1.98;100.00
42727;BME280;28372;56.832;60.658;2022-11-03T13:49:04;96839.28;;;2.08;100.00
42727;BME280;28372;56.832;60.658;2022-11-03T13:51:52;96833.31;;;1.99;100.00
42727;BME280;28372;56.832;60.658;2022-11-03T13:54:19;96834.84;;;2.00;100.00
42727;BME280;28372;56.832;60.658;2022-11-03T13:57:07;96837.72;;;2.07;100.00
42727;BME280;28372;56.832;60.658;2022-11-03T13:59:54;96834.38;;;2.10;100.00
42727;BME280;28372;56.832;60.658;2022-11-03T14:02:26;96841.72;;;2.13;100.00
42727;BME280;28372;56.832;60.658;2022-11-03T14:05:15;96837.50;;;2.12;100.00
42727;BME280;28372;56.832;60.658;2022-11-03T14:07:43;96834.56;;;2.17;100.00
42727;BME280;28372;56.832;60.658;2022-11-03T14:10:11;96837.56;;;2.16;100.00